createdAt,value
2022-10-08T00:01:30.558Z,5.63
2022-10-08T00:03:58.560Z,5.20
2022-10-08T00:06:33.299Z,5.87
2022-10-08T00:09:07.438Z,5.90
2022-10-08T00:11:40.743Z,5.37
2022-10-08T00:14:09.779Z,5.10
2022-10-08T00:16:41.408Z,5.33
2022-10-08T00:19:16.300Z,4.93
2022-10-08T00:21:46.827Z,5.27
2022-10-08T00:24:19.127Z,4.60
2022-10-08T00:26:47.601Z,5.40
2022-10-08T00:29:20.447Z,4.57
2022-10-08T00:31:51.580Z,4.53
2022-10-08T00:34:23.877Z,5.07
2022-10-08T00:36:55.684Z,5.10
2022-10-08T00:39:25.706Z,5.10
2022-10-08T00:41:56.813Z,5.00
2022-10-08T00:45:01.111Z,4.77
2022-10-08T00:47:48.959Z,4.33
2022-10-08T00:50:35.028Z,4.80
2022-10-08T00:53:08.687Z,4.90
2022-10-08T00:55:43.779Z,5.30
2022-10-08T00:58:24.602Z,5.07
2022-10-08T01:00:53.572Z,5.50
2022-10-08T01:03:21.307Z,4.53
2022-10-08T01:06:16.305Z,4.80
2022-10-08T01:09:17.940Z,4.87
2022-10-08T01:12:57.500Z,5.03
2022-10-08T01:16:17.571Z,5.23
2022-10-08T01:19:21.230Z,4.30
2022-10-08T01:22:30.717Z,4.30
2022-10-08T01:25:34.121Z,4.57
2022-10-08T01:28:40.837Z,4.60
2022-10-08T01:31:31.125Z,4.50
2022-10-08T01:34:30.933Z,4.03
2022-10-08T01:37:03.773Z,4.10
2022-10-08T01:39:41.827Z,5.13
2022-10-08T01:42:12.088Z,4.00
2022-10-08T01:44:50.973Z,4.20
2022-10-08T01:47:28.003Z,4.13
2022-10-08T01:50:24.477Z,4.30
2022-10-08T01:53:04.212Z,4.60
2022-10-08T01:55:45.027Z,3.93
2022-10-08T01:59:15.024Z,4.00
2022-10-08T02:02:09.889Z,3.40
2022-10-08T02:04:37.833Z,4.00
2022-10-08T02:07:27.969Z,4.30
2022-10-08T02:10:17.253Z,5.03
2022-10-08T02:12:46.511Z,4.77
2022-10-08T02:15:42.586Z,3.97
2022-10-08T02:18:30.533Z,3.37
2022-10-08T02:21:19.368Z,3.67
2022-10-08T02:24:10.997Z,4.87
2022-10-08T02:26:53.453Z,4.00
2022-10-08T02:29:40.544Z,4.10
2022-10-08T02:32:38.780Z,4.53
2022-10-08T02:35:23.077Z,3.73
2022-10-08T02:38:09.264Z,3.63
2022-10-08T02:40:46.057Z,3.87
2022-10-08T02:43:35.819Z,4.00
2022-10-08T02:46:26.459Z,3.10
2022-10-08T02:49:05.311Z,4.20
2022-10-08T02:51:42.878Z,3.90
2022-10-08T02:54:12.516Z,4.20
2022-10-08T02:57:09.664Z,4.30
2022-10-08T02:59:38.354Z,3.67
2022-10-08T03:02:07.172Z,3.80
2022-10-08T03:04:56.674Z,4.07
2022-10-08T03:07:28.845Z,4.03
2022-10-08T03:10:02.781Z,4.87
2022-10-08T03:12:32.610Z,4.50
2022-10-08T03:15:01.556Z,4.47
2022-10-08T03:17:39.716Z,4.73
2022-10-08T03:20:11.230Z,5.60
2022-10-08T03:22:40.473Z,5.90
2022-10-08T03:25:08.873Z,5.43
2022-10-08T03:27:36.541Z,6.33
2022-10-08T03:30:06.745Z,5.73
2022-10-08T03:32:34.418Z,5.20
2022-10-08T03:35:02.039Z,6.63
2022-10-08T03:37:29.684Z,6.30
2022-10-08T03:39:57.252Z,6.73
2022-10-08T03:42:24.972Z,6.20
2022-10-08T03:44:53.557Z,7.13
2022-10-08T03:47:21.256Z,7.30
2022-10-08T03:49:49.465Z,6.70
2022-10-08T03:52:17.271Z,8.27
2022-10-08T03:54:44.899Z,6.87
2022-10-08T03:57:12.586Z,7.20
2022-10-08T03:59:40.319Z,9.03
2022-10-08T04:02:08.647Z,8.10
2022-10-08T04:04:36.258Z,7.90
2022-10-08T04:07:04.020Z,9.27
2022-10-08T04:09:31.841Z,10.07
2022-10-08T04:11:59.521Z,8.80
2022-10-08T04:14:27.198Z,11.23
2022-10-08T04:16:55.528Z,8.60
2022-10-08T04:19:23.840Z,9.83
2022-10-08T04:21:51.459Z,10.30
2022-10-08T04:24:19.202Z,9.73
2022-10-08T04:26:46.787Z,8.57
2022-10-08T04:29:14.569Z,10.47
2022-10-08T04:31:42.248Z,10.40
2022-10-08T04:34:12.077Z,9.93
2022-10-08T04:36:40.694Z,9.23
2022-10-08T04:39:09.217Z,9.70
2022-10-08T04:41:36.943Z,8.20
2022-10-08T04:44:04.529Z,9.63
2022-10-08T04:46:32.289Z,8.43
2022-10-08T04:49:00.328Z,9.20
2022-10-08T04:51:28.862Z,9.10
2022-10-08T04:53:58.634Z,9.53
2022-10-08T04:56:32.484Z,8.77
2022-10-08T04:59:01.174Z,10.03
2022-10-08T05:01:31.616Z,8.90
2022-10-08T05:04:00.456Z,8.87
2022-10-08T05:06:32.171Z,8.70
2022-10-08T05:09:04.301Z,9.23
2022-10-08T05:11:33.480Z,9.57
2022-10-08T05:14:01.584Z,8.90
2022-10-08T05:16:29.651Z,9.37
2022-10-08T05:18:58.825Z,9.97
2022-10-08T05:21:31.597Z,9.73
2022-10-08T05:24:09.600Z,10.07
2022-10-08T05:26:57.545Z,11.30
2022-10-08T05:29:28.585Z,10.00
2022-10-08T05:31:56.733Z,10.50
2022-10-08T05:34:24.830Z,10.00
2022-10-08T05:36:52.516Z,10.27
2022-10-08T05:39:20.317Z,10.43
2022-10-08T05:41:47.890Z,10.80
2022-10-08T05:44:16.095Z,10.33
2022-10-08T05:46:44.057Z,10.17
2022-10-08T05:49:23.473Z,10.83
2022-10-08T05:51:51.445Z,8.70
2022-10-08T05:54:20.977Z,9.17
2022-10-08T05:56:48.720Z,9.40
2022-10-08T05:59:24.585Z,8.50
2022-10-08T06:01:52.758Z,7.83
2022-10-08T06:04:20.722Z,8.23
2022-10-08T06:06:48.643Z,7.90
2022-10-08T06:09:20.969Z,8.53
2022-10-08T06:11:50.156Z,6.80
2022-10-08T06:14:20.555Z,6.23
2022-10-08T06:16:48.468Z,7.70
2022-10-08T06:19:16.824Z,6.50
2022-10-08T06:21:44.606Z,7.73
2022-10-08T06:24:13.779Z,7.23
2022-10-08T06:26:45.136Z,8.63
2022-10-08T06:29:18.463Z,6.43
2022-10-08T06:31:47.443Z,6.97
2022-10-08T06:34:15.951Z,5.97
2022-10-08T06:36:43.812Z,6.10
2022-10-08T06:39:15.780Z,6.60
2022-10-08T06:41:44.225Z,6.30
2022-10-08T06:44:15.451Z,6.23
2022-10-08T06:46:43.682Z,6.73
2022-10-08T06:49:12.981Z,6.30
2022-10-08T06:51:41.045Z,6.70
2022-10-08T06:54:09.016Z,8.80
2022-10-08T06:56:38.692Z,7.80
2022-10-08T06:59:07.915Z,10.00
2022-10-08T07:01:37.257Z,11.50
2022-10-08T07:04:07.075Z,11.10
2022-10-08T07:06:35.635Z,10.33
2022-10-08T07:09:07.215Z,11.50
2022-10-08T07:11:35.209Z,10.80
2022-10-08T07:14:03.030Z,13.23
2022-10-08T07:16:30.963Z,12.23
2022-10-08T07:18:59.191Z,10.60
2022-10-08T07:21:29.613Z,11.13
2022-10-08T07:24:01.670Z,11.47
2022-10-08T07:26:34.503Z,11.83
2022-10-08T07:29:14.679Z,12.27
2022-10-08T07:31:42.483Z,12.50
2022-10-08T07:34:14.406Z,12.33
2022-10-08T07:36:42.890Z,11.10
2022-10-08T07:39:19.518Z,13.33
2022-10-08T07:41:49.358Z,12.33
2022-10-08T07:44:18.229Z,12.83
2022-10-08T07:46:51.279Z,11.83
2022-10-08T07:49:20.151Z,12.90
2022-10-08T07:51:48.527Z,11.87
2022-10-08T07:54:20.229Z,13.00
2022-10-08T07:56:48.406Z,11.30
2022-10-08T07:59:16.410Z,13.47
2022-10-08T08:01:45.154Z,11.90
2022-10-08T08:04:13.562Z,11.37
2022-10-08T08:06:48.660Z,12.80
2022-10-08T08:09:16.878Z,13.07
2022-10-08T08:11:46.265Z,12.27
2022-10-08T08:14:14.481Z,11.87
2022-10-08T08:16:42.190Z,12.87
2022-10-08T08:19:10.506Z,12.50
2022-10-08T08:21:39.692Z,13.57
2022-10-08T08:24:14.118Z,12.00
2022-10-08T08:26:44.217Z,12.20
2022-10-08T08:29:18.324Z,12.40
2022-10-08T08:31:49.695Z,12.87
2022-10-08T08:34:23.218Z,13.77
2022-10-08T08:36:54.153Z,12.27
2022-10-08T08:39:31.072Z,14.37
2022-10-08T08:42:56.779Z,14.57
2022-10-08T08:45:52.864Z,12.97
2022-10-08T08:48:28.979Z,12.60
2022-10-08T08:50:59.645Z,12.43
2022-10-08T08:53:28.487Z,12.10
2022-10-08T08:56:05.226Z,13.53
2022-10-08T08:58:41.380Z,11.57
2022-10-08T09:01:43.841Z,13.97
2022-10-08T09:04:47.452Z,11.53
2022-10-08T09:07:27.034Z,10.10
2022-10-08T09:09:59.082Z,10.50
2022-10-08T09:12:44.699Z,9.73
2022-10-08T09:15:37.812Z,9.83
2022-10-08T09:18:06.336Z,8.33
2022-10-08T09:20:39.991Z,9.60
2022-10-08T09:23:23.826Z,10.57
2022-10-08T09:26:21.565Z,9.30
2022-10-08T09:28:54.980Z,9.17
2022-10-08T09:31:45.585Z,9.70
2022-10-08T09:34:13.388Z,9.63
2022-10-08T09:36:50.708Z,9.67
2022-10-08T09:39:32.757Z,7.93
2022-10-08T09:42:17.863Z,8.73
2022-10-08T09:44:59.040Z,8.80
2022-10-08T09:47:27.886Z,7.43
2022-10-08T09:50:20.435Z,8.53
2022-10-08T09:52:55.384Z,6.30
2022-10-08T09:55:37.141Z,7.23
2022-10-08T09:58:05.507Z,6.83
2022-10-08T10:00:39.642Z,5.67
2022-10-08T10:03:19.687Z,4.80
2022-10-08T10:05:55.683Z,4.30
2022-10-08T10:09:08.544Z,3.90
2022-10-08T10:11:57.526Z,2.87
2022-10-08T10:14:50.099Z,4.43
2022-10-08T10:17:57.869Z,4.00
2022-10-08T10:20:42.002Z,3.30
2022-10-08T10:23:37.154Z,4.40
2022-10-08T10:26:36.085Z,3.83
2022-10-08T10:29:21.158Z,3.87
2022-10-08T10:32:13.417Z,3.57
2022-10-08T10:34:59.037Z,3.13
2022-10-08T10:37:51.215Z,3.77
2022-10-08T10:40:49.808Z,2.87
2022-10-08T10:44:00.619Z,3.07
2022-10-08T10:46:51.748Z,3.20
2022-10-08T10:49:27.108Z,3.00
2022-10-08T10:52:19.444Z,2.80
2022-10-08T10:55:08.408Z,3.63
2022-10-08T10:58:10.145Z,2.00
2022-10-08T11:01:50.897Z,2.00
2022-10-08T11:05:22.920Z,2.30
2022-10-08T11:09:09.337Z,1.80
2022-10-08T11:11:54.281Z,2.20
2022-10-08T11:14:58.001Z,1.47
2022-10-08T11:18:37.436Z,1.53
2022-10-08T11:22:00.336Z,1.40
2022-10-08T11:25:05.528Z,1.60
2022-10-08T11:27:59.141Z,1.40
2022-10-08T11:30:59.808Z,1.40
2022-10-08T11:33:28.882Z,1.47
2022-10-08T11:36:50.238Z,1.30
2022-10-08T11:40:00.399Z,1.80
2022-10-08T11:43:20.716Z,1.13
2022-10-08T11:45:53.935Z,1.30
2022-10-08T11:48:37.002Z,1.30
2022-10-08T11:51:20.118Z,1.77
2022-10-08T11:54:34.540Z,1.40
2022-10-08T11:58:06.227Z,1.37
2022-10-08T12:00:42.497Z,1.37
2022-10-08T12:03:31.718Z,1.03
2022-10-08T12:06:30.132Z,1.10
2022-10-08T12:09:08.073Z,1.43
2022-10-08T12:11:35.589Z,1.80
2022-10-08T12:14:15.439Z,1.40
2022-10-08T12:17:05.807Z,1.77
2022-10-08T12:19:43.212Z,1.47
2022-10-08T12:22:16.763Z,1.23
2022-10-08T12:24:49.721Z,1.30
2022-10-08T12:27:27.328Z,1.23
2022-10-08T12:30:16.898Z,1.73
2022-10-08T12:32:44.466Z,1.20
2022-10-08T12:35:43.647Z,1.67
2022-10-08T12:38:35.064Z,1.50
2022-10-08T12:42:07.580Z,1.43
2022-10-08T12:45:11.902Z,0.90
2022-10-08T12:48:03.839Z,0.90
2022-10-08T12:51:12.502Z,1.10
2022-10-08T12:53:48.508Z,1.37
2022-10-08T12:56:28.084Z,1.00
2022-10-08T12:59:03.716Z,1.63
2022-10-08T13:01:32.676Z,1.27
2022-10-08T13:04:20.200Z,1.60
2022-10-08T13:06:55.189Z,2.30
2022-10-08T13:09:33.824Z,1.40
2022-10-08T13:12:05.857Z,2.73
2022-10-08T13:14:40.232Z,1.40
2022-10-08T13:17:32.888Z,1.17
2022-10-08T13:20:21.933Z,1.60
2022-10-08T13:22:51.481Z,1.67
2022-10-08T13:25:43.197Z,1.13
2022-10-08T13:28:41.827Z,1.27
2022-10-08T13:31:24.317Z,1.50
2022-10-08T13:33:52.277Z,0.90
2022-10-08T13:36:24.366Z,1.27
2022-10-08T13:38:52.712Z,1.57
2022-10-08T13:41:24.106Z,1.37
2022-10-08T13:43:52.079Z,1.00
2022-10-08T13:46:19.803Z,1.33
2022-10-08T13:48:47.474Z,1.43
2022-10-08T13:51:15.232Z,1.40
2022-10-08T13:53:45.866Z,1.43
2022-10-08T13:56:13.905Z,1.40
2022-10-08T13:58:41.747Z,1.40
2022-10-08T14:01:09.431Z,1.60
2022-10-08T14:03:37.122Z,1.43
2022-10-08T14:06:04.869Z,1.30
2022-10-08T14:08:34.435Z,1.67
2022-10-08T14:11:02.145Z,1.67
2022-10-08T14:13:31.016Z,1.43
2022-10-08T14:15:58.796Z,2.20
2022-10-08T14:18:26.965Z,2.00
2022-10-08T14:20:54.678Z,1.43
2022-10-08T14:23:22.456Z,1.70
2022-10-08T14:25:51.945Z,1.30
2022-10-08T14:28:19.693Z,1.50
2022-10-08T14:30:47.267Z,1.30
2022-10-08T14:33:15.137Z,1.53
2022-10-08T14:35:42.797Z,1.40
2022-10-08T14:38:10.468Z,1.60
2022-10-08T14:40:39.050Z,1.60
2022-10-08T14:43:06.713Z,2.33
2022-10-08T14:45:34.547Z,1.13
2022-10-08T14:48:02.293Z,1.50
2022-10-08T14:50:29.912Z,2.10
2022-10-08T14:52:58.129Z,1.30
2022-10-08T14:55:25.825Z,1.87
2022-10-08T14:57:53.347Z,1.37
2022-10-08T15:00:21.008Z,1.57
2022-10-08T15:02:49.098Z,1.80
2022-10-08T15:05:17.456Z,1.50
2022-10-08T15:07:45.470Z,1.50
2022-10-08T15:10:13.392Z,1.50
2022-10-08T15:12:41.098Z,1.77
2022-10-08T15:15:09.667Z,2.00
2022-10-08T15:17:37.388Z,1.60
2022-10-08T15:20:07.284Z,1.60
2022-10-08T15:22:34.936Z,1.50
2022-10-08T15:25:02.740Z,1.83
2022-10-08T15:27:30.456Z,1.80
2022-10-08T15:29:57.993Z,1.20
2022-10-08T15:32:30.331Z,2.47
2022-10-08T15:34:58.559Z,1.03
2022-10-08T15:37:26.252Z,1.33
2022-10-08T15:39:53.864Z,1.10
2022-10-08T15:42:21.497Z,1.60
2022-10-08T15:44:49.261Z,1.90
2022-10-08T15:47:16.814Z,1.50
2022-10-08T15:49:46.150Z,1.20
2022-10-08T15:52:21.473Z,1.93
2022-10-08T15:54:49.753Z,1.23
2022-10-08T15:57:19.369Z,1.30
2022-10-08T15:59:47.199Z,1.33
2022-10-08T16:02:17.506Z,1.40
2022-10-08T16:04:48.818Z,2.47
2022-10-08T16:07:17.503Z,1.97
2022-10-08T16:09:45.126Z,1.53
2022-10-08T16:12:12.814Z,1.70
2022-10-08T16:14:40.538Z,1.30
2022-10-08T16:17:09.070Z,1.50
2022-10-08T16:19:36.784Z,1.10
2022-10-08T16:22:05.561Z,1.40
2022-10-08T16:24:33.977Z,1.43
2022-10-08T16:27:01.727Z,1.33
2022-10-08T16:29:29.477Z,1.70
2022-10-08T16:31:57.487Z,1.40
2022-10-08T16:34:28.603Z,2.17
2022-10-08T16:36:59.373Z,2.07
2022-10-08T16:39:27.024Z,1.60
2022-10-08T16:41:54.640Z,1.93
2022-10-08T16:44:22.524Z,1.60
2022-10-08T16:46:52.965Z,1.80
2022-10-08T16:49:30.483Z,1.40
2022-10-08T16:52:05.555Z,1.67
2022-10-08T16:54:33.405Z,1.77
2022-10-08T16:57:01.420Z,2.77
2022-10-08T16:59:31.532Z,1.77
2022-10-08T17:02:00.723Z,1.90
2022-10-08T17:04:36.372Z,1.60
2022-10-08T17:07:04.026Z,1.87
2022-10-08T17:09:32.624Z,1.83
2022-10-08T17:12:00.485Z,2.20
2022-10-08T17:14:30.933Z,2.20
2022-10-08T17:16:58.972Z,1.97
2022-10-08T17:19:26.730Z,2.20
2022-10-08T17:21:54.471Z,2.70
2022-10-08T17:24:22.322Z,2.50
2022-10-08T17:26:50.670Z,2.30
2022-10-08T17:29:18.284Z,1.90
2022-10-08T17:31:46.008Z,2.27
2022-10-08T17:34:13.746Z,1.87
2022-10-08T17:36:44.249Z,2.13
2022-10-08T17:39:14.824Z,2.93
2022-10-08T17:41:44.218Z,3.53
2022-10-08T17:44:13.492Z,3.40
2022-10-08T17:46:48.539Z,3.70
2022-10-08T17:49:20.762Z,2.70
2022-10-08T17:51:51.073Z,2.20
2022-10-08T17:54:20.987Z,3.20
2022-10-08T17:56:50.183Z,3.10
2022-10-08T17:59:24.134Z,4.20
2022-10-08T18:01:52.358Z,4.63
2022-10-08T18:04:21.363Z,3.80
2022-10-08T18:06:49.359Z,4.00
2022-10-08T18:09:21.935Z,5.93
2022-10-08T18:11:53.592Z,5.50
2022-10-08T18:14:23.234Z,4.27
2022-10-08T18:16:51.447Z,5.50
2022-10-08T18:19:20.486Z,6.17
2022-10-08T18:21:48.465Z,4.43
2022-10-08T18:24:19.076Z,5.20
2022-10-08T18:26:47.036Z,3.40
2022-10-08T18:29:15.637Z,4.43
2022-10-08T18:31:46.820Z,5.10
2022-10-08T18:34:18.997Z,5.00
2022-10-08T18:36:47.806Z,4.00
2022-10-08T18:39:23.551Z,3.40
2022-10-08T18:41:55.105Z,3.60
2022-10-08T18:44:26.240Z,4.33
2022-10-08T18:46:54.866Z,4.43
2022-10-08T18:49:30.718Z,6.70
2022-10-08T18:51:59.564Z,4.40
2022-10-08T18:54:27.547Z,3.23
2022-10-08T18:56:56.889Z,4.23
2022-10-08T18:59:24.900Z,3.43
2022-10-08T19:01:56.978Z,4.60
2022-10-08T19:04:27.463Z,4.33
2022-10-08T19:06:55.237Z,4.10
2022-10-08T19:09:23.068Z,4.57
2022-10-08T19:11:55.008Z,5.57
2022-10-08T19:14:24.566Z,5.47
2022-10-08T19:16:52.912Z,5.63
2022-10-08T19:19:31.746Z,5.70
2022-10-08T19:22:01.430Z,4.63
2022-10-08T19:24:29.786Z,5.20
2022-10-08T19:26:57.697Z,4.50
2022-10-08T19:29:29.681Z,4.03
2022-10-08T19:31:58.294Z,4.47
2022-10-08T19:34:28.456Z,4.13
2022-10-08T19:36:56.789Z,5.00
2022-10-08T19:39:31.046Z,5.07
2022-10-08T19:41:58.943Z,5.10
2022-10-08T19:44:26.772Z,5.13
2022-10-08T19:46:54.557Z,5.27
2022-10-08T19:49:23.064Z,5.10
2022-10-08T19:51:50.821Z,5.43
2022-10-08T19:54:18.648Z,5.90
2022-10-08T19:56:46.454Z,5.03
2022-10-08T19:59:15.464Z,4.80
2022-10-08T20:01:43.752Z,4.40
2022-10-08T20:04:12.228Z,4.97
2022-10-08T20:06:42.952Z,5.00
2022-10-08T20:09:14.256Z,5.00
2022-10-08T20:11:46.690Z,5.63
2022-10-08T20:14:16.085Z,5.83
2022-10-08T20:16:44.776Z,5.20
2022-10-08T20:19:21.365Z,10.20
2022-10-08T20:21:53.761Z,6.37
2022-10-08T20:24:21.811Z,7.00
2022-10-08T20:26:50.232Z,6.70
2022-10-08T20:29:26.283Z,5.93
2022-10-08T20:31:57.590Z,6.23
2022-10-08T20:34:31.220Z,5.80
2022-10-08T20:37:01.640Z,6.10
2022-10-08T20:39:30.492Z,6.57
2022-10-08T20:41:59.614Z,6.80
2022-10-08T20:44:27.326Z,8.53
2022-10-08T20:46:55.276Z,9.67
2022-10-08T20:49:22.946Z,10.50
2022-10-08T20:51:50.767Z,7.80
2022-10-08T20:54:18.783Z,7.63
2022-10-08T20:56:46.452Z,8.27
2022-10-08T20:59:19.065Z,8.10
2022-10-08T21:01:50.336Z,6.93
2022-10-08T21:04:21.216Z,7.87
2022-10-08T21:06:51.967Z,8.57
2022-10-08T21:09:22.616Z,8.50
2022-10-08T21:11:50.361Z,9.57
2022-10-08T21:14:22.906Z,11.80
2022-10-08T21:16:51.333Z,11.70
2022-10-08T21:19:24.176Z,11.70
2022-10-08T21:21:52.752Z,12.60
2022-10-08T21:24:20.766Z,14.47
2022-10-08T21:26:48.690Z,15.53
2022-10-08T21:29:16.491Z,14.90
2022-10-08T21:31:44.320Z,12.30
2022-10-08T21:34:13.387Z,14.90
2022-10-08T21:36:42.723Z,14.50
2022-10-08T21:39:17.379Z,14.40
2022-10-08T21:41:45.811Z,13.37
2022-10-08T21:44:14.670Z,13.60
2022-10-08T21:46:44.311Z,12.17
2022-10-08T21:49:22.284Z,13.07
2022-10-08T21:51:50.347Z,21.87
2022-10-08T21:54:18.389Z,31.20
2022-10-08T21:56:46.279Z,21.60
2022-10-08T21:59:16.907Z,18.90
2022-10-08T22:01:51.272Z,17.23
2022-10-08T22:04:24.475Z,20.70
2022-10-08T22:06:58.464Z,17.07
2022-10-08T22:09:32.937Z,18.03
2022-10-08T22:12:02.270Z,18.93
2022-10-08T22:14:30.541Z,22.03
2022-10-08T22:16:58.292Z,21.50
2022-10-08T22:19:26.030Z,23.20
2022-10-08T22:21:53.631Z,21.70
2022-10-08T22:24:21.445Z,20.50
2022-10-08T22:26:49.363Z,18.57
2022-10-08T22:29:17.725Z,19.63
2022-10-08T22:31:46.147Z,24.37
2022-10-08T22:34:14.047Z,26.10
2022-10-08T22:36:45.416Z,29.13
2022-10-08T22:39:13.259Z,32.40
2022-10-08T22:41:41.019Z,41.10
2022-10-08T22:44:08.624Z,36.60
2022-10-08T22:46:40.469Z,31.40
2022-10-08T22:49:12.543Z,26.13
2022-10-08T22:51:43.852Z,21.67
2022-10-08T22:54:11.494Z,22.43
2022-10-08T22:56:39.159Z,23.70
2022-10-08T22:59:07.017Z,20.97
2022-10-08T23:01:34.564Z,22.13
2022-10-08T23:04:02.333Z,21.17
2022-10-08T23:06:35.261Z,21.60
2022-10-08T23:09:12.876Z,19.00
2022-10-08T23:11:40.538Z,18.00
2022-10-08T23:14:08.185Z,20.00
2022-10-08T23:16:36.062Z,18.13
2022-10-08T23:19:10.768Z,14.97
2022-10-08T23:21:39.730Z,16.60
2022-10-08T23:24:09.314Z,14.37
2022-10-08T23:26:36.967Z,12.90
2022-10-08T23:29:05.561Z,12.80
2022-10-08T23:31:37.822Z,12.67
2022-10-08T23:34:08.629Z,13.30
2022-10-08T23:36:43.948Z,13.30
2022-10-08T23:39:16.700Z,14.10
2022-10-08T23:41:44.465Z,13.73
2022-10-08T23:44:13.581Z,14.07
2022-10-08T23:46:41.260Z,13.90
2022-10-08T23:49:09.166Z,13.60
2022-10-08T23:51:36.838Z,12.90
2022-10-08T23:54:04.676Z,14.47
2022-10-08T23:56:32.346Z,12.13
2022-10-08T23:59:00.378Z,13.33
